< Typhoon 196511 1965 Season Typhoon 196513 >
Typhoon 196512 (GILDA)
General InformationTrack Information on Google Maps || Disaster Info.ResourceGoogle EarthGE AnimationAtom FeedGeoJSON
Detalied Best Track (Time Zone = UTC)
Year Month Day Hour Lat. Long. Pressure (hPa) Wind (kt) Class Image Chart
1965 7 12 18 6.5 155.5 1004 0 2 -- Chart
1965 7 13 00 6.5 153.9 1005 0 2 -- Chart
1965 7 13 06 6.1 152.5 1005 0 2 -- Chart
1965 7 13 12 6.7 151.0 1004 0 2 -- Chart
1965 7 13 18 7.5 150.0 1005 0 2 -- Chart
1965 7 14 00 7.5 148.4 1005 0 2 -- Chart
1965 7 14 06 7.9 146.5 1005 0 2 -- Chart
1965 7 14 12 8.8 144.9 1006 0 2 -- Chart
1965 7 14 18 9.5 143.1 1006 0 2 -- Chart
1965 7 15 00 9.7 141.0 1006 0 2 -- Chart
1965 7 15 06 10.6 140.1 1004 0 2 -- Chart
1965 7 15 12 11.0 139.1 1004 0 2 -- Chart
1965 7 15 18 11.1 138.1 1004 0 2 -- Chart
1965 7 16 00 11.4 137.0 1004 0 2 -- Chart
1965 7 16 06 11.8 136.2 1004 0 2 -- Chart
1965 7 16 12 12.4 135.3 1004 0 2 -- Chart
1965 7 16 18 12.7 134.5 1004 0 2 -- Chart
1965 7 17 00 13.3 133.6 1004 0 2 -- Chart
1965 7 17 06 13.9 132.4 1004 0 2 -- Chart
1965 7 17 12 14.5 131.3 1004 0 2 -- Chart
1965 7 17 18 15.1 130.1 1004 0 2 -- Chart
1965 7 18 00 15.8 128.9 1006 0 2 -- Chart
1965 7 18 06 15.8 127.7 1004 0 2 -- Chart
1965 7 18 12 15.9 126.6 1004 0 2 -- Chart
1965 7 18 18 15.9 125.4 1004 0 2 -- Chart
1965 7 19 00 16.0 123.8 1002 0 2 -- Chart
1965 7 19 06 17.3 122.2 1000 0 2 -- Chart
1965 7 19 12 18.2 121.1 1000 0 2 -- Chart
1965 7 19 18 19.0 120.0 1000 0 2 -- Chart
1965 7 20 00 20.0 118.9 1000 0 2 -- Chart
1965 7 20 06 19.9 117.7 1000 0 2 -- Chart
1965 7 20 12 19.8 116.7 1000 0 2 -- Chart
1965 7 20 18 19.5 115.5 998 0 2 -- Chart
1965 7 21 00 18.6 114.1 995 0 9 -- Chart
1965 7 21 06 18.5 113.3 985 0 9 -- Chart
1965 7 21 12 18.4 112.9 986 0 9 -- Chart
1965 7 21 18 18.4 112.5 986 0 9 -- Chart
1965 7 22 00 18.4 112.4 986 0 9 -- Chart
1965 7 22 06 18.7 112.3 986 0 9 -- Chart
1965 7 22 12 19.2 112.1 990 0 9 -- Chart
1965 7 22 18 20.0 112.0 990 0 9 -- Chart
1965 7 23 00 20.7 111.8 990 0 9 -- Chart
1965 7 23 06 21.5 111.7 990 0 9 -- Chart
1965 7 23 12 21.9 111.0 996 0 2 -- Chart
1965 7 23 18 22.0 110.0 998 0 2 -- Chart
1965 7 24 00 22.0 109.0 998 0 2 -- Chart
1965 7 24 06 22.0 108.0 998 0 2 -- Chart
1965 7 24 12 22.0 106.0 1000 0 2 -- Chart
1965 7 24 18 22.0 104.0 1000 0 2 -- Chart
1965 7 25 00 22.0 102.0 1002 0 6 -- Chart
Japan Meteorological Agency Best Track Data | Correction Date : 1989-06-01
< Typhoon 196511 1965 Season Typhoon 196513 >

Help